createdAt,value
2022-08-08T00:01:08.765Z,94962.59
2022-08-08T00:03:48.224Z,94960.91
2022-08-08T00:06:34.745Z,94967.47
2022-08-08T00:09:11.994Z,94971.56
2022-08-08T00:16:54.733Z,94972.78
2022-08-08T00:19:28.088Z,94979.69
2022-08-08T00:22:03.516Z,94978.59
2022-08-08T00:24:36.647Z,94980.25
2022-08-08T00:27:09.117Z,94981.22
2022-08-08T00:29:45.181Z,94975.97
2022-08-08T00:38:32.454Z,94977.31
2022-08-08T00:42:08.266Z,94973.44
2022-08-08T00:45:32.115Z,94977.06
2022-08-08T00:48:34.060Z,94980.84
2022-08-08T00:51:44.895Z,94976.06
2022-08-08T01:00:04.855Z,94967.47
2022-08-08T01:03:58.129Z,94968.25
2022-08-08T01:06:33.655Z,94963.81
2022-08-08T01:09:36.093Z,94966.03
2022-08-08T01:12:53.618Z,94965.59
2022-08-08T01:22:07.306Z,94971.53
2022-08-08T01:25:14.380Z,94973.44
2022-08-08T01:28:15.624Z,94970.53
2022-08-08T01:32:06.314Z,94973.22
2022-08-08T01:34:57.709Z,94973.38
2022-08-08T01:43:21.891Z,94982.09
2022-08-08T01:45:58.515Z,94977.47
2022-08-08T01:48:48.147Z,94979.16
2022-08-08T01:52:42.230Z,94981.91
2022-08-08T01:55:45.513Z,94983.59
2022-08-08T02:01:17.173Z,94982.78
2022-08-08T02:04:04.623Z,94983.59
2022-08-08T02:06:55.827Z,94980.19
2022-08-08T02:10:01.705Z,94987.44
2022-08-08T02:12:31.239Z,94985.06
2022-08-08T02:15:34.789Z,94984.38
2022-08-08T02:23:16.337Z,94993.75
2022-08-08T02:25:52.309Z,94985.72
2022-08-08T02:28:35.366Z,94999.38
2022-08-08T02:31:43.329Z,94995.94
2022-08-08T02:34:15.148Z,94997.34
2022-08-08T02:37:05.551Z,95005.59
2022-08-08T02:45:51.686Z,95003.94
2022-08-08T02:49:08.452Z,95001.03
2022-08-08T02:52:32.605Z,95010.94
2022-08-08T02:55:19.965Z,95004.56
2022-08-08T02:58:33.792Z,95009.97
2022-08-08T03:06:34.363Z,95010.50
2022-08-08T03:09:42.169Z,95007.03
2022-08-08T03:13:01.175Z,95013.75
2022-08-08T03:16:05.928Z,95020.44
2022-08-08T03:18:45.633Z,95021.28
2022-08-08T03:28:47.437Z,95032.47
2022-08-08T03:32:06.790Z,95026.03
2022-08-08T03:34:27.880Z,95033.50
2022-08-08T03:36:55.757Z,95045.03
2022-08-08T03:39:23.519Z,95045.03
2022-08-08T03:42:28.188Z,95043.19
2022-08-08T03:44:47.912Z,95044.81
2022-08-08T03:52:20.724Z,95049.81
2022-08-08T03:55:02.512Z,95053.59
2022-08-08T03:58:31.630Z,95049.81
2022-08-08T04:00:26.911Z,95050.59
2022-08-08T04:03:06.367Z,95046.03
2022-08-08T04:05:39.955Z,95041.50
2022-08-08T04:10:59.957Z,95052.47
2022-08-08T04:13:29.070Z,95056.22
2022-08-08T04:16:18.577Z,95055.66
2022-08-08T04:18:48.834Z,95047.91
2022-08-08T04:21:23.305Z,95054.78
2022-08-08T04:24:05.424Z,95065.47
2022-08-08T04:29:37.575Z,95064.59
2022-08-08T04:32:13.866Z,95065.16
2022-08-08T04:34:59.736Z,95062.75
2022-08-08T04:37:34.114Z,95061.16
2022-08-08T04:40:12.521Z,95066.50
2022-08-08T04:42:56.898Z,95068.38
2022-08-08T04:50:50.310Z,95068.56
2022-08-08T04:54:38.019Z,95069.81
2022-08-08T04:56:12.429Z,95067.34
2022-08-08T04:58:41.170Z,95071.03
2022-08-08T05:01:10.729Z,95081.94
2022-08-08T05:04:08.071Z,95074.88
2022-08-08T05:09:16.034Z,95070.94
2022-08-08T05:11:47.703Z,95080.97
2022-08-08T05:14:25.729Z,95069.59
2022-08-08T05:17:00.883Z,95076.38
2022-08-08T05:20:11.852Z,95078.59
2022-08-08T05:22:27.064Z,95090.31
2022-08-08T05:27:41.577Z,95077.03
2022-08-08T05:30:14.295Z,95082.91
2022-08-08T05:32:46.255Z,95082.63
2022-08-08T05:35:23.450Z,95085.63
2022-08-08T05:37:59.008Z,95090.03
2022-08-08T05:40:47.182Z,95087.72
2022-08-08T05:46:08.050Z,95093.28
2022-08-08T05:48:41.890Z,95095.00
2022-08-08T05:51:15.737Z,95091.19
2022-08-08T05:54:24.379Z,95099.94
2022-08-08T05:56:47.291Z,95102.03
2022-08-08T05:59:59.304Z,95096.16
2022-08-08T06:05:03.025Z,95103.50
2022-08-08T06:07:51.768Z,95102.69
2022-08-08T06:10:31.955Z,95102.25
2022-08-08T06:13:01.040Z,95108.84
2022-08-08T06:15:50.688Z,95116.28
2022-08-08T06:18:25.378Z,95109.22
2022-08-08T06:23:53.036Z,95114.41
2022-08-08T06:26:38.268Z,95109.47
2022-08-08T06:29:48.862Z,95113.19
2022-08-08T06:32:15.078Z,95124.66
2022-08-08T06:34:56.593Z,95118.28
2022-08-08T06:37:46.023Z,95126.38
2022-08-08T06:45:26.547Z,95124.69
2022-08-08T06:48:00.702Z,95126.88
2022-08-08T06:50:33.477Z,95127.63
2022-08-08T06:53:10.065Z,95134.38
2022-08-08T06:56:01.970Z,95126.31
2022-08-08T06:58:35.395Z,95135.28
2022-08-08T07:02:16.720Z,95128.34
2022-08-08T07:06:55.354Z,95133.50
2022-08-08T07:09:45.621Z,95123.34
2022-08-08T07:12:30.596Z,95125.47
2022-08-08T07:15:04.473Z,95120.97
2022-08-08T07:17:56.850Z,95125.47
2022-08-08T07:20:29.793Z,95129.22
2022-08-08T07:25:54.627Z,95116.78
2022-08-08T07:28:31.730Z,95126.91
2022-08-08T07:31:05.341Z,95117.78
2022-08-08T07:33:37.957Z,95117.97
2022-08-08T07:36:22.871Z,95121.44
2022-08-08T07:38:53.466Z,95119.94
2022-08-08T07:41:27.332Z,95117.72
2022-08-08T07:49:01.385Z,95116.34
2022-08-08T07:51:44.776Z,95121.81
2022-08-08T07:54:31.991Z,95112.41
2022-08-08T07:57:17.018Z,95114.59
2022-08-08T07:59:57.850Z,95121.66
2022-08-08T08:02:38.562Z,95113.22
2022-08-08T08:10:17.594Z,95110.34
2022-08-08T08:13:20.047Z,95103.91
2022-08-08T08:16:01.452Z,95104.38
2022-08-08T08:18:36.351Z,95105.63
2022-08-08T08:21:13.354Z,95094.63
2022-08-08T08:23:51.084Z,95089.69
2022-08-08T08:29:42.390Z,95087.19
2022-08-08T08:32:14.156Z,95086.59
2022-08-08T08:35:03.472Z,95079.34
2022-08-08T08:37:32.669Z,95090.91
2022-08-08T08:40:04.606Z,95087.50
2022-08-08T08:42:38.942Z,95086.13
2022-08-08T08:48:07.744Z,95083.44
2022-08-08T08:50:40.878Z,95074.88
2022-08-08T08:53:26.916Z,95075.78
2022-08-08T08:56:10.573Z,95078.97
2022-08-08T08:58:46.974Z,95072.63
2022-08-08T09:01:33.375Z,95072.56
2022-08-08T09:06:50.418Z,95066.81
2022-08-08T09:09:37.514Z,95053.59
2022-08-08T09:12:19.947Z,95053.63
2022-08-08T09:14:51.699Z,95061.06
2022-08-08T09:17:40.694Z,95064.34
2022-08-08T09:22:01.009Z,95066.28
2022-08-08T09:26:21.574Z,95052.56
2022-08-08T09:28:52.515Z,95060.28
2022-08-08T09:31:42.600Z,95049.88
2022-08-08T09:34:34.557Z,95028.38
2022-08-08T09:37:28.825Z,95055.47
2022-08-08T09:40:11.185Z,95062.88
2022-08-08T09:48:04.091Z,95043.69
2022-08-08T09:50:32.479Z,95040.22
2022-08-08T09:53:14.427Z,95037.91
2022-08-08T09:56:04.313Z,95034.97
2022-08-08T09:58:41.454Z,95038.75
2022-08-08T10:01:15.436Z,95039.00
2022-08-08T10:10:00.672Z,95030.81
2022-08-08T10:12:38.760Z,95027.72
2022-08-08T10:15:22.406Z,95026.91
2022-08-08T10:18:07.502Z,95017.97
2022-08-08T10:20:50.975Z,95022.13
2022-08-08T10:23:42.000Z,95022.25
2022-08-08T10:31:46.876Z,95017.34
2022-08-08T10:34:19.516Z,95015.03
2022-08-08T10:36:50.271Z,95010.22
2022-08-08T10:39:19.683Z,95016.81
2022-08-08T10:41:58.772Z,95009.19
2022-08-08T10:44:42.915Z,95009.25
2022-08-08T10:50:06.184Z,94999.72
2022-08-08T10:52:37.330Z,95006.91
2022-08-08T10:55:08.025Z,95006.50
2022-08-08T10:57:45.509Z,95009.25
2022-08-08T11:00:23.383Z,95008.28
2022-08-08T11:02:54.739Z,95002.44
2022-08-08T11:08:53.250Z,94993.69
2022-08-08T11:12:00.174Z,94986.44
2022-08-08T11:14:12.210Z,94986.06
2022-08-08T11:16:46.905Z,94981.75
2022-08-08T11:19:17.284Z,94988.94
2022-08-08T11:21:54.234Z,94983.16
2022-08-08T11:24:27.161Z,94978.13
2022-08-08T11:31:57.407Z,94982.75
2022-08-08T11:34:34.369Z,94968.97
2022-08-08T11:37:14.845Z,94965.91
2022-08-08T11:39:43.993Z,94963.75
2022-08-08T11:42:26.930Z,94954.09
2022-08-08T11:44:58.919Z,94948.69
2022-08-08T11:54:38.274Z,94960.28
2022-08-08T11:57:27.206Z,94962.00
2022-08-08T12:00:01.081Z,94954.34
2022-08-08T12:02:51.762Z,94944.66
2022-08-08T12:05:22.932Z,94953.13
2022-08-08T12:07:53.908Z,94965.50
2022-08-08T12:10:27.105Z,94947.63
2022-08-08T12:17:53.892Z,94941.50
2022-08-08T12:20:23.287Z,94938.81
2022-08-08T12:22:52.528Z,94925.44
2022-08-08T12:25:29.778Z,94937.28
2022-08-08T12:28:15.790Z,94940.63
2022-08-08T12:30:49.956Z,94939.41
2022-08-08T12:36:12.058Z,94938.78
2022-08-08T12:38:48.562Z,94945.44
2022-08-08T12:41:33.855Z,94940.16
2022-08-08T12:44:08.645Z,94930.63
2022-08-08T12:46:36.491Z,94924.81
2022-08-08T12:49:25.213Z,94930.78
2022-08-08T12:52:00.348Z,94922.25
2022-08-08T12:58:19.689Z,94929.06
2022-08-08T13:00:51.687Z,94925.75
2022-08-08T13:03:27.236Z,94927.22
2022-08-08T13:06:10.461Z,94925.94
2022-08-08T13:08:53.467Z,94926.13
2022-08-08T13:11:28.716Z,94911.19
2022-08-08T13:17:53.899Z,94914.19
2022-08-08T13:20:32.308Z,94917.03
2022-08-08T13:23:30.098Z,94912.91
2022-08-08T13:25:58.824Z,94904.66
2022-08-08T13:28:32.293Z,94905.84
2022-08-08T13:31:01.901Z,94901.69
2022-08-08T13:33:41.938Z,94896.69
2022-08-08T13:40:45.127Z,94886.72
2022-08-08T13:43:13.937Z,94888.97
2022-08-08T13:45:47.488Z,94890.63
2022-08-08T13:48:16.752Z,94878.56
2022-08-08T13:50:49.273Z,94886.31
2022-08-08T13:53:27.524Z,94890.91
2022-08-08T13:59:13.044Z,94877.34
2022-08-08T14:01:52.850Z,94888.06
2022-08-08T14:04:25.349Z,94880.19
2022-08-08T14:07:04.452Z,94866.38
2022-08-08T14:10:02.412Z,94881.03
2022-08-08T14:12:28.043Z,94884.09
2022-08-08T14:20:06.782Z,94857.34
2022-08-08T14:22:38.383Z,94867.28
2022-08-08T14:25:15.441Z,94862.94
2022-08-08T14:28:00.057Z,94859.56
2022-08-08T14:30:34.606Z,94858.38
2022-08-08T14:33:11.123Z,94854.25
2022-08-08T14:40:48.370Z,94859.59
2022-08-08T14:44:02.094Z,94857.63
2022-08-08T14:46:14.810Z,94860.50
2022-08-08T14:48:57.298Z,94857.84
2022-08-08T14:51:47.008Z,94860.53
2022-08-08T14:54:16.211Z,94860.56
2022-08-08T15:03:01.756Z,94860.00
2022-08-08T15:05:42.917Z,94863.50
2022-08-08T15:08:22.233Z,94853.38
2022-08-08T15:11:01.849Z,94849.78
2022-08-08T15:13:39.920Z,94847.72
2022-08-08T15:16:19.885Z,94853.41
2022-08-08T15:23:50.851Z,94849.03
2022-08-08T15:26:19.844Z,94850.16
2022-08-08T15:28:53.050Z,94854.66
2022-08-08T15:31:57.667Z,94859.63
2022-08-08T15:34:29.148Z,94852.59
2022-08-08T15:36:58.268Z,94851.41
2022-08-08T15:39:31.631Z,94862.94
2022-08-08T15:46:35.074Z,94857.19
2022-08-08T15:49:04.348Z,94855.06
2022-08-08T15:51:33.656Z,94855.06
2022-08-08T15:54:03.616Z,94858.16
2022-08-08T15:56:31.709Z,94858.09
2022-08-08T15:59:01.119Z,94852.13
2022-08-08T16:01:40.656Z,94851.09
2022-08-08T16:06:52.707Z,94851.81
2022-08-08T16:13:10.988Z,94841.22
2022-08-08T16:13:11.834Z,94851.91
2022-08-08T16:14:56.689Z,94849.63
2022-08-08T16:17:57.735Z,94846.34
2022-08-08T16:20:13.849Z,94833.78
2022-08-08T16:25:20.200Z,94840.50
2022-08-08T16:27:57.834Z,94847.47
2022-08-08T16:30:36.354Z,94852.72
2022-08-08T16:33:04.654Z,94849.28
2022-08-08T16:35:33.521Z,94846.13
2022-08-08T16:38:00.961Z,94859.25
2022-08-08T16:40:29.648Z,94861.06
2022-08-08T16:47:46.114Z,94864.50
2022-08-08T16:50:16.350Z,94858.53
2022-08-08T16:55:18.393Z,94863.91
2022-08-08T16:55:54.002Z,94859.47
2022-08-08T16:58:26.370Z,94867.44
2022-08-08T17:00:57.838Z,94866.28
2022-08-08T17:03:59.779Z,94872.84
2022-08-08T17:08:53.962Z,94880.00
2022-08-08T17:11:21.552Z,94875.97
2022-08-08T17:14:01.480Z,94888.53
2022-08-08T17:16:29.758Z,94885.03
2022-08-08T17:19:00.672Z,94889.72
2022-08-08T17:21:37.405Z,94890.41
2022-08-08T17:24:26.959Z,94886.34
2022-08-08T17:29:36.468Z,94889.41
2022-08-08T17:32:11.394Z,94890.88
2022-08-08T17:35:00.208Z,94897.06
2022-08-08T17:37:32.732Z,94899.06
2022-08-08T17:40:05.654Z,94902.09
2022-08-08T17:42:46.749Z,94901.09
2022-08-08T17:48:32.081Z,94904.66
2022-08-08T17:51:00.559Z,94907.88
2022-08-08T17:53:31.238Z,94910.72
2022-08-08T17:56:11.225Z,94905.66
2022-08-08T17:58:39.946Z,94915.75
2022-08-08T18:01:10.160Z,94917.47
2022-08-08T18:03:38.733Z,94917.16
2022-08-08T18:10:48.645Z,94920.69
2022-08-08T18:13:17.917Z,94932.00
2022-08-08T18:15:45.521Z,94937.03
2022-08-08T18:18:31.680Z,94936.91
2022-08-08T18:21:00.719Z,94941.56
2022-08-08T18:23:38.065Z,94952.84
2022-08-08T18:26:08.601Z,94947.13
2022-08-08T18:34:11.508Z,94953.94
2022-08-08T18:36:24.937Z,94956.09
2022-08-08T18:38:53.186Z,94970.00
2022-08-08T18:41:51.130Z,94959.00
2022-08-08T18:44:12.740Z,94969.78
2022-08-08T18:46:55.024Z,94979.94
2022-08-08T18:52:04.364Z,94986.44
2022-08-08T18:54:33.021Z,94993.72
2022-08-08T18:57:01.730Z,94993.56
2022-08-08T18:59:34.746Z,95000.53
2022-08-08T19:02:26.167Z,95004.59
2022-08-08T19:04:56.910Z,95008.28
2022-08-08T19:10:14.398Z,95005.63
2022-08-08T19:12:44.650Z,95007.22
2022-08-08T19:15:23.662Z,95010.31
2022-08-08T19:18:32.308Z,95010.31
2022-08-08T19:20:42.907Z,95006.69
2022-08-08T19:23:14.271Z,95009.78
2022-08-08T19:26:20.163Z,95008.09
2022-08-08T19:31:18.189Z,95018.81
2022-08-08T19:34:05.082Z,95015.47
2022-08-08T19:36:37.947Z,95006.47
2022-08-08T19:39:06.111Z,95011.56
2022-08-08T19:41:37.239Z,95008.13
2022-08-08T19:44:13.192Z,95013.25
2022-08-08T19:51:57.554Z,94997.91
2022-08-08T19:54:26.235Z,94991.91
2022-08-08T19:56:53.757Z,94999.81
2022-08-08T19:59:22.625Z,94991.84
2022-08-08T20:02:03.399Z,95001.09
2022-08-08T20:04:33.057Z,94999.94
2022-08-08T20:07:05.194Z,95005.34
2022-08-08T20:14:13.002Z,95003.94
2022-08-08T20:16:57.133Z,95005.81
2022-08-08T20:19:34.323Z,94997.63
2022-08-08T20:22:04.769Z,95000.63
2022-08-08T20:24:32.845Z,95009.00
2022-08-08T20:27:04.605Z,95005.63
2022-08-08T20:29:45.670Z,95016.09
2022-08-08T20:37:21.729Z,95022.75
2022-08-08T20:39:51.188Z,95016.91
2022-08-08T20:42:28.668Z,95009.41
2022-08-08T20:44:58.102Z,95009.72
2022-08-08T20:47:26.086Z,95003.22
2022-08-08T20:49:57.726Z,95023.38
2022-08-08T20:52:28.696Z,95010.13
2022-08-08T21:00:00.376Z,95029.25
2022-08-08T21:02:28.213Z,95022.00
2022-08-08T21:04:57.202Z,95026.59
2022-08-08T21:07:47.481Z,95026.16
2022-08-08T21:10:13.380Z,95035.03
2022-08-08T21:12:44.259Z,95028.53
2022-08-08T21:15:16.578Z,95038.47
2022-08-08T21:20:49.125Z,95027.19
2022-08-08T21:23:18.523Z,95031.16
2022-08-08T21:25:53.205Z,95046.91
2022-08-08T21:28:35.747Z,95041.06
2022-08-08T21:31:05.854Z,95042.59
2022-08-08T21:33:49.961Z,95033.72
2022-08-08T21:36:21.071Z,95042.00
2022-08-08T21:43:56.468Z,95044.50
2022-08-08T21:48:05.918Z,95056.53
2022-08-08T21:49:13.449Z,95059.75
2022-08-08T21:54:23.308Z,95060.38
2022-08-08T21:55:01.928Z,95062.31
2022-08-08T21:57:20.277Z,95067.47
2022-08-08T22:00:03.764Z,95060.47
2022-08-08T22:07:48.478Z,95063.19
2022-08-08T22:10:28.755Z,95061.34
2022-08-08T22:13:18.648Z,95049.97
2022-08-08T22:15:59.136Z,95049.09
2022-08-08T22:18:30.053Z,95056.53
2022-08-08T22:20:59.005Z,95058.00
2022-08-08T22:23:34.159Z,95053.72
2022-08-08T22:31:01.564Z,95051.00
2022-08-08T22:34:12.751Z,95041.38
2022-08-08T22:36:16.713Z,95047.09
2022-08-08T22:38:59.761Z,95047.59
2022-08-08T22:41:27.271Z,95050.38
2022-08-08T22:44:01.865Z,95045.53
2022-08-08T22:46:34.358Z,95048.03
2022-08-08T22:54:32.637Z,95046.91
2022-08-08T22:56:57.536Z,95050.44
2022-08-08T22:59:25.082Z,95047.91
2022-08-08T23:02:02.260Z,95047.09
2022-08-08T23:04:33.632Z,95046.81
2022-08-08T23:07:02.973Z,95039.94
2022-08-08T23:09:39.366Z,95043.63
2022-08-08T23:17:23.227Z,95033.63
2022-08-08T23:19:57.708Z,95030.00
2022-08-08T23:22:25.245Z,95036.50
2022-08-08T23:24:52.748Z,95040.06
2022-08-08T23:27:46.148Z,95036.47
2022-08-08T23:30:09.341Z,95040.28
2022-08-08T23:32:44.054Z,95029.88
2022-08-08T23:40:16.793Z,95033.50
2022-08-08T23:42:49.873Z,95031.63
2022-08-08T23:45:19.242Z,95028.72
2022-08-08T23:49:05.805Z,95037.28
2022-08-08T23:50:57.471Z,95044.25
2022-08-08T23:54:04.837Z,95048.25
